Time;durP1;ratioP1;P1;durP2;ratioP2;P2;SDS_P1;SDS_P2;PMS_P1;PMS_P2;Temp;Humidity;BMP_temperature;BMP_pressure;BME280_temperature;BME280_humidity;BME280_pressure;Samples;Min_cycle;Max_cycle;Signal;HPM_P1;HPM_P2
2021/11/08 00:01:21;;;;;;;0.30;0.20;;;6.50;99.90;;;;;;4996722;28;20452;-79
2021/11/08 00:03:51;;;;;;;0.70;0.30;;;6.50;99.90;;;;;;4996079;28;20512;-79
2021/11/08 00:06:18;;;;;;;0.30;0.30;;;6.50;99.90;;;;;;4996181;28;20453;-79
2021/11/08 00:08:45;;;;;;;0.30;0.20;;;6.50;99.90;;;;;;4996448;28;20437;-79
2021/11/08 00:11:14;;;;;;;1.80;0.80;;;6.50;99.90;;;;;;4996189;28;20459;-79
2021/11/08 00:13:41;;;;;;;0.30;0.20;;;6.50;99.90;;;;;;4995783;28;20839;-79
2021/11/08 00:16:16;;;;;;;0.30;0.27;;;6.50;99.90;;;;;;4995788;28;20547;-79
2021/11/08 00:18:49;;;;;;;0.30;0.20;;;6.50;99.90;;;;;;4996099;28;20451;-79
2021/11/08 00:21:18;;;;;;;1.60;0.30;;;6.50;99.90;;;;;;4996281;28;20487;-79
2021/11/08 00:23:45;;;;;;;0.40;0.30;;;6.50;99.90;;;;;;4995878;28;20449;-79
2021/11/08 00:26:12;;;;;;;0.30;0.30;;;6.50;99.90;;;;;;4996314;28;20457;-79
2021/11/08 00:28:39;;;;;;;0.40;0.40;;;6.50;99.90;;;;;;4995833;28;20944;-82
2021/11/08 00:31:06;;;;;;;0.47;0.47;;;6.50;99.90;;;;;;4995826;28;20448;-82
2021/11/08 00:33:33;;;;;;;0.50;0.40;;;6.50;99.90;;;;;;4995596;28;20488;-82
2021/11/08 00:36:01;;;;;;;1.00;0.50;;;6.50;99.90;;;;;;4995689;28;20480;-82
2021/11/08 00:38:30;;;;;;;0.50;0.30;;;6.50;99.90;;;;;;4995680;28;20463;-83
2021/11/08 00:40:57;;;;;;;0.30;0.30;;;6.50;99.90;;;;;;4995845;28;20445;-82
2021/11/08 00:43:24;;;;;;;0.30;0.30;;;6.50;99.90;;;;;;4995505;28;20900;-82
2021/11/08 00:45:52;;;;;;;0.40;0.30;;;6.50;99.90;;;;;;4995530;28;20464;-82
2021/11/08 00:48:21;;;;;;;0.30;0.30;;;6.60;99.90;;;;;;4995460;28;20499;-83
2021/11/08 00:50:49;;;;;;;0.30;0.30;;;6.60;99.90;;;;;;4995076;28;20465;-82
2021/11/08 00:53:18;;;;;;;0.40;0.30;;;6.60;99.90;;;;;;4995196;28;21014;-82
2021/11/08 00:55:46;;;;;;;0.40;0.40;;;6.50;99.90;;;;;;4995119;28;20955;-82
2021/11/08 00:58:18;;;;;;;0.40;0.30;;;6.50;99.90;;;;;;4995588;28;20452;-82
2021/11/08 01:00:44;;;;;;;0.50;0.50;;;6.50;99.90;;;;;;4995259;28;20495;-83
2021/11/08 01:03:14;;;;;;;0.30;0.20;;;6.50;99.90;;;;;;4994861;28;20842;-82
2021/11/08 01:05:41;;;;;;;0.30;0.30;;;6.50;99.90;;;;;;4995150;28;20820;-82
2021/11/08 01:08:08;;;;;;;1.80;1.70;;;6.50;99.90;;;;;;4994970;28;20453;-83
2021/11/08 01:10:36;;;;;;;0.30;0.30;;;6.50;99.90;;;;;;4995065;28;20461;-82
2021/11/08 01:13:03;;;;;;;2.53;0.40;;;6.50;99.90;;;;;;4994553;28;20500;-82
2021/11/08 01:15:30;;;;;;;0.30;0.20;;;6.50;99.90;;;;;;4995034;28;20488;-82
2021/11/08 01:17:57;;;;;;;0.30;0.30;;;6.50;99.90;;;;;;4994936;28;20495;-82
2021/11/08 01:20:31;;;;;;;0.30;0.30;;;6.50;99.90;;;;;;4994887;28;20456;-82
2021/11/08 01:22:58;;;;;;;0.30;0.20;;;6.50;99.90;;;;;;4994589;28;20544;-82
2021/11/08 01:25:24;;;;;;;0.30;0.20;;;6.40;99.90;;;;;;4994631;28;20448;-82
2021/11/08 01:27:55;;;;;;;0.30;0.30;;;6.40;99.90;;;;;;4994624;28;20910;-82
2021/11/08 01:30:24;;;;;;;0.30;0.30;;;6.40;99.90;;;;;;4994759;28;20440;-82
2021/11/08 01:32:56;;;;;;;0.60;0.30;;;6.40;99.90;;;;;;4994553;28;20476;-82
2021/11/08 01:35:30;;;;;;;0.33;0.33;;;6.40;99.90;;;;;;4994818;28;20479;-85
2021/11/08 01:38:02;;;;;;;0.40;0.30;;;6.30;99.90;;;;;;4994435;28;20928;-84
2021/11/08 01:40:30;;;;;;;0.40;0.30;;;6.20;99.90;;;;;;4994957;28;20454;-84
2021/11/08 01:42:58;;;;;;;0.70;0.50;;;6.20;99.90;;;;;;4994486;28;20902;-84
2021/11/08 01:45:25;;;;;;;0.70;0.30;;;6.20;99.90;;;;;;4994580;28;20481;-84
2021/11/08 01:47:52;;;;;;;0.30;0.20;;;6.10;99.90;;;;;;4994625;28;20810;-84
2021/11/08 01:50:19;;;;;;;0.30;0.30;;;6.00;99.90;;;;;;4994452;28;20449;-84
2021/11/08 01:52:46;;;;;;;0.30;0.20;;;5.90;99.90;;;;;;4994564;28;20475;-84
2021/11/08 01:55:12;;;;;;;0.37;0.37;;;5.80;99.90;;;;;;4993980;28;20491;-82
2021/11/08 01:57:40;;;;;;;0.63;0.63;;;5.70;99.90;;;;;;4994174;28;20863;-82
2021/11/08 02:00:09;;;;;;;0.30;0.30;;;5.70;99.90;;;;;;4994245;28;20453;-82
2021/11/08 02:02:37;;;;;;;0.30;0.30;;;5.60;99.90;;;;;;4994201;28;20453;-82
2021/11/08 02:05:04;;;;;;;0.30;0.30;;;5.60;99.90;;;;;;4994196;28;20453;-82
2021/11/08 02:07:31;;;;;;;0.30;0.30;;;5.50;99.90;;;;;;4994106;28;20449;-82
2021/11/08 02:09:59;;;;;;;0.50;0.50;;;5.50;99.90;;;;;;4994275;28;20484;-82
2021/11/08 02:12:27;;;;;;;0.30;0.30;;;5.40;99.90;;;;;;4993718;28;20489;-82
2021/11/08 02:14:54;;;;;;;0.60;0.60;;;5.40;99.90;;;;;;4993863;28;20567;-82
2021/11/08 02:17:22;;;;;;;0.30;0.20;;;5.30;99.90;;;;;;4993830;28;20986;-82
2021/11/08 02:19:49;;;;;;;0.30;0.30;;;5.30;99.90;;;;;;4993765;28;20964;-82
2021/11/08 02:22:17;;;;;;;0.90;0.33;;;5.20;99.90;;;;;;4993883;28;20812;-82
2021/11/08 02:24:44;;;;;;;0.30;0.30;;;5.20;99.90;;;;;;4993589;28;20461;-82
2021/11/08 02:27:10;;;;;;;0.40;0.30;;;5.10;99.90;;;;;;4993945;28;20463;-82
2021/11/08 02:29:37;;;;;;;0.40;0.40;;;5.10;99.90;;;;;;4993955;28;20541;-82
2021/11/08 02:32:04;;;;;;;0.30;0.20;;;5.00;99.90;;;;;;4993974;28;20452;-78
2021/11/08 02:34:31;;;;;;;0.30;0.20;;;4.90;99.90;;;;;;4993493;28;20820;-78
2021/11/08 02:36:58;;;;;;;0.40;0.40;;;4.90;99.90;;;;;;4994078;28;20465;-78
2021/11/08 02:39:31;;;;;;;0.63;0.40;;;4.80;99.90;;;;;;4997984;28;20413;-78
2021/11/08 02:41:58;;;;;;;0.30;0.30;;;4.80;99.90;;;;;;4998138;28;20429;-78
2021/11/08 02:44:25;;;;;;;0.30;0.20;;;4.80;99.90;;;;;;4997621;28;20511;-78
2021/11/08 02:46:53;;;;;;;0.30;0.30;;;4.80;99.90;;;;;;4997544;28;20947;-78
2021/11/08 02:49:24;;;;;;;0.30;0.30;;;4.80;99.90;;;;;;4997602;28;20979;-78
2021/11/08 02:51:59;;;;;;;2.60;2.40;;;4.70;99.90;;;;;;4997743;28;20556;-78
2021/11/08 02:54:31;;;;;;;0.30;0.30;;;4.70;99.90;;;;;;4997447;28;20558;-78
2021/11/08 02:56:58;;;;;;;0.30;0.20;;;4.70;99.90;;;;;;4997694;28;20441;-83
2021/11/08 02:59:27;;;;;;;0.30;0.30;;;4.60;99.90;;;;;;4997566;28;20964;-84
2021/11/08 03:01:55;;;;;;;0.40;0.40;;;4.60;99.90;;;;;;4997492;28;20452;-84
2021/11/08 03:04:26;;;;;;;0.30;0.30;;;4.60;99.90;;;;;;4997493;28;20505;-84
2021/11/08 03:06:53;;;;;;;0.30;0.20;;;4.60;99.90;;;;;;4997783;28;20433;-84
2021/11/08 03:09:22;;;;;;;0.30;0.30;;;4.50;99.90;;;;;;4997465;28;20463;-84
2021/11/08 03:11:50;;;;;;;0.30;0.27;;;4.50;99.90;;;;;;4997393;28;20543;-84
2021/11/08 03:14:20;;;;;;;0.30;0.30;;;4.50;99.90;;;;;;4997469;28;20991;-84
2021/11/08 03:16:49;;;;;;;0.30;0.20;;;4.50;99.90;;;;;;4997075;28;20937;-84
2021/11/08 03:19:20;;;;;;;0.30;0.30;;;4.40;99.90;;;;;;4997225;28;20441;-84
2021/11/08 03:21:49;;;;;;;0.30;0.20;;;4.40;99.90;;;;;;4997296;28;20437;-84
2021/11/08 03:24:20;;;;;;;0.30;0.30;;;4.40;99.90;;;;;;4996911;28;21026;-84
2021/11/08 03:26:49;;;;;;;0.30;0.30;;;4.30;99.90;;;;;;4997222;28;20442;-82
2021/11/08 03:29:19;;;;;;;0.30;0.20;;;4.30;99.90;;;;;;4996664;28;20971;-82
2021/11/08 03:31:49;;;;;;;0.30;0.20;;;4.30;99.90;;;;;;4996701;28;21039;-82
2021/11/08 03:34:17;;;;;;;0.30;0.30;;;4.30;99.90;;;;;;4996762;28;20567;-82
2021/11/08 03:36:44;;;;;;;0.30;0.20;;;4.30;99.90;;;;;;4996858;28;20535;-82
2021/11/08 03:39:13;;;;;;;0.30;0.30;;;4.30;99.90;;;;;;4996596;28;20456;-78
2021/11/08 03:41:41;;;;;;;0.30;0.20;;;4.30;99.90;;;;;;4996787;28;20462;-78
2021/11/08 03:44:07;;;;;;;0.30;0.20;;;4.30;99.90;;;;;;4996570;28;20465;-78
2021/11/08 03:46:36;;;;;;;0.40;0.40;;;4.30;99.90;;;;;;4997079;28;20460;-78
2021/11/08 03:49:03;;;;;;;0.30;0.20;;;4.30;99.90;;;;;;4996239;28;20567;-78
2021/11/08 03:51:30;;;;;;;0.30;0.20;;;4.30;99.90;;;;;;4996594;28;20456;-78
2021/11/08 03:53:57;;;;;;;0.40;0.40;;;4.30;99.90;;;;;;4996101;28;20976;-78
2021/11/08 03:56:24;;;;;;;0.30;0.30;;;4.30;99.90;;;;;;4996234;28;20816;-84
2021/11/08 03:58:51;;;;;;;0.30;0.20;;;4.30;99.90;;;;;;4996533;28;20456;-84
2021/11/08 04:01:18;;;;;;;0.30;0.30;;;4.20;99.90;;;;;;4996527;28;20514;-84
2021/11/08 04:03:46;;;;;;;0.30;0.30;;;4.20;99.90;;;;;;4996414;28;20909;-84
2021/11/08 04:06:14;;;;;;;0.30;0.20;;;4.20;99.90;;;;;;4996455;28;20444;-84
2021/11/08 04:08:41;;;;;;;0.30;0.30;;;4.20;99.90;;;;;;4996362;28;20464;-84
2021/11/08 04:11:08;;;;;;;0.30;0.30;;;4.10;99.90;;;;;;4996507;28;20455;-84
2021/11/08 04:13:40;;;;;;;0.40;0.40;;;4.10;99.90;;;;;;4995761;28;20495;-84
2021/11/08 04:16:08;;;;;;;0.30;0.30;;;4.10;99.90;;;;;;4996193;28;20565;-84
2021/11/08 04:18:35;;;;;;;0.50;0.50;;;4.00;99.90;;;;;;4996178;28;20460;-83
2021/11/08 04:21:05;;;;;;;0.30;0.30;;;4.00;99.90;;;;;;4996083;28;20455;-84
2021/11/08 04:23:32;;;;;;;0.30;0.20;;;4.00;99.90;;;;;;4996055;28;20465;-84
2021/11/08 04:26:00;;;;;;;1.53;1.53;;;4.00;99.90;;;;;;4996058;28;20499;-84
2021/11/08 04:28:27;;;;;;;0.30;0.30;;;3.90;99.90;;;;;;4995748;28;20456;-83
2021/11/08 04:30:53;;;;;;;0.30;0.30;;;3.90;99.90;;;;;;4996049;28;20464;-84
2021/11/08 04:33:29;;;;;;;0.30;0.30;;;4.00;99.90;;;;;;4996323;28;20480;-84
2021/11/08 04:36:35;;;;;;;0.30;0.30;;;3.90;99.90;;;;;;4996138;28;21018;-83
2021/11/08 04:39:20;;;;;;;0.30;0.20;;;3.90;99.90;;;;;;4995938;28;20494;-84
2021/11/08 04:41:53;;;;;;;0.30;0.20;;;3.90;99.90;;;;;;4996592;28;20480;-84
2021/11/08 04:50:06;;;;;;;0.30;0.20;;;3.80;99.90;;;;;;4995640;28;20494;-84
2021/11/08 04:52:47;;;;;;;0.30;0.20;;;3.80;99.90;;;;;;4995557;28;20436;-84
2021/11/08 04:55:26;;;;;;;0.30;0.30;;;3.80;99.90;;;;;;4995839;28;20818;-84
2021/11/08 04:58:12;;;;;;;0.30;0.20;;;3.80;99.90;;;;;;4995530;28;20491;-84
2021/11/08 05:22:47;;;;;;;0.80;0.60;;;3.60;99.90;;;;;;4995199;28;20443;-84
2021/11/08 05:28:17;;;;;;;0.30;0.20;;;3.60;99.90;;;;;;4993609;28;20443;-84
2021/11/08 05:30:44;;;;;;;0.30;0.20;;;3.60;99.90;;;;;;4995190;28;20464;-78
2021/11/08 05:33:11;;;;;;;0.30;0.20;;;3.60;99.90;;;;;;4994732;28;20999;-78
2021/11/08 05:35:38;;;;;;;0.30;0.30;;;3.50;99.90;;;;;;4994566;28;20513;-78
2021/11/08 05:38:09;;;;;;;0.70;0.70;;;3.50;99.90;;;;;;4994402;28;20463;-78
2021/11/08 05:40:36;;;;;;;0.30;0.30;;;3.60;99.90;;;;;;4994613;28;20437;-78
2021/11/08 05:43:06;;;;;;;0.30;0.20;;;3.50;99.90;;;;;;4994489;28;20472;-78
2021/11/08 05:45:34;;;;;;;0.30;0.30;;;3.50;99.90;;;;;;4994256;28;20460;-78
2021/11/08 05:48:02;;;;;;;0.30;0.30;;;3.50;99.90;;;;;;4994456;28;20460;-78
2021/11/08 05:50:30;;;;;;;0.30;0.20;;;3.50;99.90;;;;;;4994395;28;20460;-78
2021/11/08 05:52:57;;;;;;;0.30;0.30;;;3.40;99.90;;;;;;4994008;28;20469;-78
2021/11/08 05:55:31;;;;;;;0.40;0.30;;;3.30;99.90;;;;;;4993963;28;20487;-78
2021/11/08 05:58:07;;;;;;;0.30;0.20;;;3.30;99.90;;;;;;4994373;28;20468;-78
2021/11/08 06:49:59;;;;;;;0.30;0.20;;;3.30;99.90;;;;;;4994104;28;20400;-78
2021/11/08 06:52:27;;;;;;;1.07;0.97;;;3.30;99.90;;;;;;4993679;28;20444;-78
2021/11/08 06:54:55;;;;;;;0.30;0.30;;;3.30;99.90;;;;;;4993317;28;20491;-78
2021/11/08 06:57:24;;;;;;;0.30;0.30;;;3.30;99.90;;;;;;4993617;28;20444;-78
2021/11/08 06:59:51;;;;;;;0.30;0.30;;;3.30;99.90;;;;;;4993627;28;20460;-78
2021/11/08 07:02:20;;;;;;;0.30;0.20;;;3.30;99.90;;;;;;4993607;28;20464;-78
2021/11/08 07:04:47;;;;;;;0.30;0.20;;;3.30;99.90;;;;;;4993608;28;20449;-78
2021/11/08 07:07:15;;;;;;;0.40;0.40;;;3.40;99.90;;;;;;4993562;28;20940;-78
2021/11/08 07:09:42;;;;;;;0.30;0.20;;;3.40;99.90;;;;;;4993304;28;20444;-78
2021/11/08 07:12:11;;;;;;;0.30;0.20;;;3.40;99.90;;;;;;4993287;28;20490;-78
2021/11/08 07:14:38;;;;;;;0.93;0.73;;;3.40;99.90;;;;;;4993097;28;20471;-78
2021/11/08 07:17:06;;;;;;;0.30;0.30;;;3.40;99.90;;;;;;4993444;28;20459;-78
2021/11/08 07:19:32;;;;;;;0.30;0.30;;;3.50;99.90;;;;;;4993486;28;20460;-78
2021/11/08 07:21:59;;;;;;;0.30;0.30;;;3.50;99.90;;;;;;4993149;28;20448;-78
2021/11/08 07:24:28;;;;;;;0.30;0.30;;;3.60;99.90;;;;;;4995443;28;20544;-78
2021/11/08 07:26:55;;;;;;;0.30;0.30;;;3.60;99.90;;;;;;4996942;28;20806;-82
2021/11/08 07:29:22;;;;;;;0.30;0.30;;;3.70;99.90;;;;;;4996781;28;20420;-82
2021/11/08 07:31:50;;;;;;;0.30;0.30;;;3.80;99.90;;;;;;4997202;28;20892;-82
2021/11/08 07:34:17;;;;;;;0.60;0.37;;;3.80;99.90;;;;;;4996903;28;20476;-83
2021/11/08 07:36:44;;;;;;;0.43;0.43;;;3.90;99.90;;;;;;4997094;28;20476;-83
2021/11/08 07:39:11;;;;;;;0.30;0.20;;;3.90;99.90;;;;;;4997155;28;20417;-84
2021/11/08 07:41:39;;;;;;;0.80;0.80;;;3.90;99.90;;;;;;4997306;28;20824;-84
2021/11/08 07:44:06;;;;;;;0.30;0.20;;;4.00;99.90;;;;;;4998621;28;20472;-84
2021/11/08 07:46:33;;;;;;;0.30;0.27;;;4.00;99.90;;;;;;4997765;28;20432;-82
2021/11/08 07:49:00;;;;;;;0.30;0.30;;;4.00;99.90;;;;;;4996373;28;20948;-82
2021/11/08 07:51:27;;;;;;;0.30;0.30;;;4.00;99.90;;;;;;4996252;28;20460;-82
2021/11/08 07:53:53;;;;;;;0.30;0.30;;;4.10;99.90;;;;;;4996421;28;20472;-84
2021/11/08 07:56:20;;;;;;;0.30;0.27;;;4.20;99.90;;;;;;4996345;28;20476;-84
2021/11/08 07:58:49;;;;;;;0.60;0.40;;;4.20;99.90;;;;;;4996719;28;20445;-84
2021/11/08 08:01:16;;;;;;;0.30;0.30;;;4.30;99.90;;;;;;4996643;28;20543;-84
2021/11/08 08:03:45;;;;;;;0.40;0.33;;;4.40;99.90;;;;;;4996167;28;20492;-84
2021/11/08 08:06:12;;;;;;;0.30;0.30;;;4.50;99.90;;;;;;4996432;28;20855;-84
2021/11/08 08:08:39;;;;;;;0.80;0.43;;;4.50;99.90;;;;;;4996546;28;20448;-82
2021/11/08 08:11:06;;;;;;;0.30;0.30;;;4.60;99.90;;;;;;4996207;28;20445;-82
2021/11/08 08:13:34;;;;;;;1.27;1.27;;;4.70;99.90;;;;;;4995923;28;20480;-82
2021/11/08 08:16:06;;;;;;;0.30;0.30;;;4.80;99.90;;;;;;4995811;28;20588;-84
2021/11/08 08:18:37;;;;;;;0.30;0.27;;;4.90;99.90;;;;;;4996343;28;20433;-85
2021/11/08 08:21:05;;;;;;;0.30;0.30;;;5.10;99.90;;;;;;4996672;28;20439;-86
2021/11/08 08:23:32;;;;;;;0.30;0.30;;;5.20;99.90;;;;;;4995978;28;20995;-85
2021/11/08 08:25:59;;;;;;;0.60;0.50;;;5.30;99.90;;;;;;4996171;28;20456;-86
2021/11/08 08:28:26;;;;;;;0.30;0.30;;;5.50;99.90;;;;;;4995878;28;20463;-85
2021/11/08 08:30:54;;;;;;;0.30;0.30;;;5.70;99.90;;;;;;4996259;28;20448;-85
2021/11/08 08:33:22;;;;;;;0.30;0.30;;;5.80;99.90;;;;;;4996307;28;20473;-86
2021/11/08 08:35:49;;;;;;;0.40;0.40;;;6.10;99.90;;;;;;4994484;28;20488;-86
2021/11/08 08:38:18;;;;;;;0.30;0.27;;;6.40;99.90;;;;;;4996140;28;20459;-86
2021/11/08 08:40:46;;;;;;;1.47;0.37;;;6.80;99.90;;;;;;4995592;28;20507;-85
2021/11/08 08:43:13;;;;;;;1.07;0.40;;;7.40;99.90;;;;;;4995382;28;20503;-86
2021/11/08 08:45:40;;;;;;;0.40;0.30;;;8.20;99.90;;;;;;4995740;28;20819;-83
2021/11/08 08:48:11;;;;;;;0.60;0.60;;;9.30;99.90;;;;;;4995253;28;20456;-83
2021/11/08 08:50:41;;;;;;;0.83;0.83;;;10.20;99.90;;;;;;4995684;28;20432;-82
2021/11/08 08:53:08;;;;;;;0.40;0.40;;;11.00;99.90;;;;;;4995177;28;21003;-84
2021/11/08 08:55:37;;;;;;;0.50;0.40;;;11.90;99.90;;;;;;4995322;28;20488;-85
2021/11/08 08:58:06;;;;;;;0.50;0.50;;;12.80;99.90;;;;;;4995347;28;20452;-84
2021/11/08 09:00:34;;;;;;;0.90;0.50;;;14.10;99.90;;;;;;4995308;28;20460;-83
2021/11/08 09:03:01;;;;;;;1.27;0.50;;;15.20;99.90;;;;;;4995029;28;20483;-83
2021/11/08 09:05:28;;;;;;;1.40;0.67;;;15.80;99.90;;;;;;4995209;28;20460;-83
2021/11/08 09:07:57;;;;;;;0.83;0.60;;;16.50;99.90;;;;;;4995080;28;20452;-82
2021/11/08 09:10:26;;;;;;;1.33;0.80;;;17.00;99.90;;;;;;4994734;28;20445;-83
2021/11/08 09:12:56;;;;;;;2.10;0.80;;;17.40;99.90;;;;;;4994643;28;20996;-83
2021/11/08 09:15:24;;;;;;;0.70;0.70;;;17.50;99.00;;;;;;4994642;28;20963;-83
2021/11/08 09:17:51;;;;;;;0.83;0.80;;;17.70;98.30;;;;;;4994675;28;20460;-83
2021/11/08 09:20:18;;;;;;;0.60;0.60;;;17.80;97.70;;;;;;4994703;28;20463;-84
2021/11/08 09:22:49;;;;;;;0.67;0.67;;;17.70;96.50;;;;;;4994783;28;20461;-83
2021/11/08 09:25:18;;;;;;;0.60;0.60;;;17.70;95.50;;;;;;4994913;28;20447;-84
2021/11/08 09:27:47;;;;;;;0.60;0.50;;;17.80;95.20;;;;;;4995125;28;20444;-89
2021/11/08 09:30:17;;;;;;;1.37;0.73;;;17.80;94.30;;;;;;4994927;28;20447;-84
2021/11/08 09:32:45;;;;;;;1.53;1.43;;;17.70;94.80;;;;;;4994619;28;20467;-84
2021/11/08 09:35:13;;;;;;;0.93;0.80;;;17.50;94.20;;;;;;4994259;28;20492;-84
2021/11/08 09:37:44;;;;;;;0.60;0.60;;;16.80;93.50;;;;;;4994695;28;20448;-84
2021/11/08 09:40:14;;;;;;;0.93;0.93;;;15.80;94.80;;;;;;4994875;28;20515;-83
2021/11/08 09:42:43;;;;;;;0.70;0.70;;;14.70;96.40;;;;;;4994732;28;20421;-83
2021/11/08 09:45:12;;;;;;;1.47;0.70;;;14.20;98.90;;;;;;4994568;28;20440;-84
2021/11/08 09:47:39;;;;;;;0.60;0.60;;;14.80;99.20;;;;;;4993966;28;20420;-83
2021/11/08 09:50:10;;;;;;;1.63;0.93;;;15.10;98.40;;;;;;4994135;28;20803;-83
2021/11/08 09:52:39;;;;;;;1.63;1.53;;;15.30;98.80;;;;;;4994348;28;20441;-83
2021/11/08 09:55:07;;;;;;;1.80;1.20;;;15.90;98.50;;;;;;4994246;28;20814;-83
2021/11/08 09:57:34;;;;;;;1.43;1.43;;;15.90;97.70;;;;;;4994071;28;20472;-83
2021/11/08 10:00:14;;;;;;;1.10;0.60;;;15.70;97.90;;;;;;4994979;28;20448;-83
2021/11/08 10:02:47;;;;;;;0.60;0.43;;;15.40;97.50;;;;;;4994211;28;20471;-83
2021/11/08 10:05:14;;;;;;;0.50;0.40;;;14.80;99.30;;;;;;4994809;28;20447;-83
2021/11/08 10:07:41;;;;;;;0.73;0.70;;;14.30;99.80;;;;;;4994124;28;20433;-83
2021/11/08 10:10:08;;;;;;;0.70;0.60;;;14.00;99.90;;;;;;4994475;28;20430;-83
2021/11/08 10:12:36;;;;;;;0.70;0.50;;;13.70;99.90;;;;;;4993909;28;20485;-83
2021/11/08 10:15:08;;;;;;;0.40;0.40;;;13.50;99.90;;;;;;4994197;28;20451;-80
2021/11/08 10:17:34;;;;;;;0.80;0.50;;;13.30;99.90;;;;;;4993855;28;20460;-80
2021/11/08 10:20:02;;;;;;;0.43;0.40;;;12.90;99.90;;;;;;4994120;28;20440;-80
2021/11/08 10:22:30;;;;;;;1.07;0.97;;;12.90;99.90;;;;;;4993979;28;20436;-80
2021/11/08 10:24:58;;;;;;;0.40;0.37;;;13.10;99.90;;;;;;4993742;28;20476;-80
2021/11/08 10:27:25;;;;;;;0.80;0.80;;;13.10;99.90;;;;;;4994257;28;20437;-80
2021/11/08 10:29:52;;;;;;;1.07;0.83;;;13.20;99.90;;;;;;4994056;28;20516;-80
2021/11/08 10:32:22;;;;;;;0.50;0.40;;;13.20;99.90;;;;;;4993701;28;20439;-83
2021/11/08 10:34:51;;;;;;;0.47;0.47;;;13.40;99.90;;;;;;4993723;28;20947;-83
2021/11/08 10:37:26;;;;;;;0.53;0.53;;;13.10;99.90;;;;;;4993680;28;20484;-83
2021/11/08 10:39:54;;;;;;;0.40;0.40;;;12.80;99.90;;;;;;4993794;28;20416;-83
2021/11/08 10:42:22;;;;;;;0.60;0.40;;;12.40;99.90;;;;;;4993576;28;20800;-83
2021/11/08 10:44:49;;;;;;;2.87;0.60;;;12.10;99.90;;;;;;4995021;28;20480;-82
2021/11/08 10:47:21;;;;;;;0.50;0.50;;;11.90;99.90;;;;;;4993754;28;20953;-83
2021/11/08 10:49:48;;;;;;;0.70;0.70;;;11.70;99.90;;;;;;4993579;28;20441;-82
2021/11/08 10:52:18;;;;;;;0.50;0.50;;;11.70;99.90;;;;;;4993713;28;20421;-81
2021/11/08 10:54:50;;;;;;;1.30;1.20;;;11.70;99.90;;;;;;4993800;28;20465;-85
2021/11/08 10:57:20;;;;;;;3.57;0.60;;;11.70;99.90;;;;;;4994250;28;20893;-82
2021/11/08 10:59:49;;;;;;;0.60;0.60;;;11.60;99.90;;;;;;4998321;28;20443;-82
2021/11/08 11:02:19;;;;;;;0.80;0.73;;;11.50;99.90;;;;;;4998923;28;20417;-82
2021/11/08 11:04:50;;;;;;;0.90;0.90;;;11.40;99.90;;;;;;4997653;28;20469;-82
2021/11/08 11:07:21;;;;;;;0.30;0.30;;;11.20;99.90;;;;;;4997468;28;20437;-82
2021/11/08 11:09:50;;;;;;;0.30;0.30;;;11.40;99.90;;;;;;4999346;28;20420;-82
2021/11/08 11:12:19;;;;;;;0.70;0.63;;;11.60;99.90;;;;;;4998838;28;20494;-83
2021/11/08 11:14:49;;;;;;;3.20;0.40;;;11.60;99.90;;;;;;5000398;28;20544;-83
2021/11/08 11:17:19;;;;;;;0.40;0.40;;;11.60;99.90;;;;;;4999942;28;20469;-83
2021/11/08 11:19:47;;;;;;;0.30;0.20;;;11.40;99.90;;;;;;4998396;28;20440;-82
2021/11/08 11:22:17;;;;;;;0.40;0.40;;;11.50;99.90;;;;;;4997210;28;20440;-82
2021/11/08 11:24:47;;;;;;;0.57;0.33;;;11.50;99.90;;;;;;4997104;28;20510;-82
2021/11/08 11:27:17;;;;;;;3.33;0.50;;;11.40;99.90;;;;;;4997123;28;20433;-82
2021/11/08 11:29:45;;;;;;;0.30;0.30;;;11.20;99.90;;;;;;4996813;28;20483;-82
2021/11/08 11:32:24;;;;;;;0.40;0.40;;;11.10;99.90;;;;;;4996756;28;20417;-83
2021/11/08 11:34:52;;;;;;;0.70;0.37;;;11.20;99.90;;;;;;4996723;28;20935;-82
2021/11/08 11:37:21;;;;;;;0.40;0.40;;;11.20;99.90;;;;;;4996607;28;20976;-83
2021/11/08 11:39:49;;;;;;;0.40;0.40;;;11.10;99.90;;;;;;4996675;28;20420;-83
2021/11/08 11:42:16;;;;;;;0.40;0.40;;;11.00;99.90;;;;;;4996880;28;20413;-82
2021/11/08 11:44:43;;;;;;;0.60;0.60;;;10.80;99.90;;;;;;4996598;28;20491;-83
2021/11/08 11:47:16;;;;;;;2.57;0.60;;;10.70;99.90;;;;;;4996832;28;20432;-82
2021/11/08 11:49:43;;;;;;;0.43;0.40;;;10.60;99.90;;;;;;4996706;28;20461;-83
2021/11/08 11:52:13;;;;;;;0.30;0.30;;;10.40;99.90;;;;;;4997191;28;20432;-82
2021/11/08 11:54:40;;;;;;;0.37;0.30;;;10.30;99.90;;;;;;4996416;28;20480;-82
2021/11/08 11:57:07;;;;;;;0.50;0.43;;;10.30;99.90;;;;;;4996491;28;20472;-82
2021/11/08 11:59:35;;;;;;;1.00;0.90;;;10.40;99.90;;;;;;4996554;28;20440;-81
2021/11/08 12:02:03;;;;;;;0.40;0.30;;;10.50;99.90;;;;;;4996749;28;20436;-83
2021/11/08 12:04:30;;;;;;;0.50;0.30;;;10.70;99.90;;;;;;4996228;28;20548;-85
2021/11/08 12:06:59;;;;;;;1.27;0.30;;;10.60;99.90;;;;;;4996527;28;20440;-82
2021/11/08 12:09:30;;;;;;;0.37;0.30;;;10.60;99.90;;;;;;4996582;28;20444;-82
2021/11/08 12:11:57;;;;;;;0.40;0.40;;;10.50;99.90;;;;;;4996824;28;20451;-81
2021/11/08 12:14:27;;;;;;;0.40;0.30;;;10.40;99.90;;;;;;4995929;28;20481;-80
2021/11/08 12:16:58;;;;;;;0.30;0.30;;;10.30;99.90;;;;;;4995838;28;20559;-80
2021/11/08 12:19:27;;;;;;;0.50;0.50;;;10.20;99.90;;;;;;4995877;28;20429;-80
2021/11/08 12:21:54;;;;;;;0.83;0.30;;;10.10;99.90;;;;;;4995849;28;20433;-80
2021/11/08 12:24:23;;;;;;;0.30;0.30;;;9.80;99.90;;;;;;4996161;28;20527;-80
2021/11/08 12:27:04;;;;;;;0.50;0.43;;;9.80;99.90;;;;;;4995793;28;20421;-80
2021/11/08 12:29:31;;;;;;;0.40;0.40;;;9.60;99.90;;;;;;4995966;28;20436;-80
2021/11/08 12:32:03;;;;;;;0.40;0.40;;;9.60;99.90;;;;;;4995742;28;20436;-80
2021/11/08 12:34:38;;;;;;;3.60;0.70;;;9.60;99.90;;;;;;4995539;28;20484;-80
2021/11/08 12:37:05;;;;;;;0.50;0.50;;;9.60;99.90;;;;;;4995761;28;20467;-80
2021/11/08 12:39:32;;;;;;;0.30;0.30;;;9.50;99.90;;;;;;4996065;28;20467;-80
2021/11/08 12:42:04;;;;;;;0.50;0.50;;;9.50;99.90;;;;;;4995757;28;20440;-80
2021/11/08 12:44:37;;;;;;;0.37;0.33;;;9.50;99.90;;;;;;4995352;28;20471;-80
2021/11/08 12:47:04;;;;;;;0.30;0.23;;;9.50;99.90;;;;;;4996195;28;20447;-80
2021/11/08 12:49:33;;;;;;;0.40;0.40;;;9.60;99.90;;;;;;4995397;28;20769;-79
2021/11/08 12:52:06;;;;;;;0.40;0.30;;;9.50;99.90;;;;;;4995562;28;20437;-80
2021/11/08 12:54:47;;;;;;;0.30;0.30;;;9.40;99.90;;;;;;4995240;28;20461;-79
2021/11/08 12:57:17;;;;;;;0.40;0.37;;;9.30;99.90;;;;;;4995399;28;20465;-80
2021/11/08 12:59:47;;;;;;;0.30;0.30;;;9.20;99.90;;;;;;4995824;28;20445;-80
2021/11/08 13:02:25;;;;;;;0.30;0.30;;;9.10;99.90;;;;;;4995357;28;20460;-79
2021/11/08 13:04:54;;;;;;;0.40;0.30;;;9.00;99.90;;;;;;4995306;28;20529;-80
2021/11/08 13:07:22;;;;;;;0.30;0.30;;;8.80;99.90;;;;;;4994986;28;20447;-80
2021/11/08 13:09:52;;;;;;;0.30;0.30;;;8.70;99.90;;;;;;4995191;28;20453;-79
2021/11/08 13:12:22;;;;;;;0.53;0.50;;;8.70;99.90;;;;;;4994692;28;20996;-81
2021/11/08 13:15:02;;;;;;;0.77;0.77;;;8.70;99.90;;;;;;4995124;28;20457;-80
2021/11/08 13:17:30;;;;;;;0.30;0.30;;;8.60;99.90;;;;;;4995654;28;20468;-80
2021/11/08 13:20:01;;;;;;;0.30;0.30;;;8.60;99.90;;;;;;4995451;28;20863;-80
2021/11/08 13:22:30;;;;;;;0.50;0.30;;;8.60;99.90;;;;;;4993955;28;20433;-80
2021/11/08 13:25:06;;;;;;;0.50;0.50;;;8.70;99.90;;;;;;4994624;28;20448;-80
2021/11/08 13:27:35;;;;;;;0.30;0.20;;;8.80;99.90;;;;;;4994569;28;20435;-80
2021/11/08 13:30:05;;;;;;;0.40;0.40;;;8.80;99.90;;;;;;4994541;28;20963;-80
2021/11/08 13:32:33;;;;;;;0.40;0.30;;;8.90;99.90;;;;;;4994712;28;20437;-80
2021/11/08 13:35:09;;;;;;;0.73;0.73;;;9.00;99.90;;;;;;4994731;28;20452;-80
2021/11/08 13:37:38;;;;;;;0.40;0.30;;;9.00;99.90;;;;;;4994320;28;20468;-80
2021/11/08 13:40:20;;;;;;;0.37;0.27;;;9.00;99.90;;;;;;4994609;28;20448;-80
2021/11/08 13:42:51;;;;;;;0.40;0.30;;;9.20;99.90;;;;;;4994287;28;20841;-80
2021/11/08 13:45:18;;;;;;;0.40;0.40;;;9.30;99.90;;;;;;4994303;28;21058;-81
2021/11/08 13:47:48;;;;;;;0.30;0.20;;;9.50;99.90;;;;;;4994516;28;20440;-82
2021/11/08 13:50:17;;;;;;;0.30;0.20;;;9.50;99.90;;;;;;4995071;28;20428;-81
2021/11/08 13:52:45;;;;;;;0.30;0.20;;;9.40;99.90;;;;;;4996819;28;20473;-81
2021/11/08 13:55:13;;;;;;;0.30;0.30;;;9.30;99.90;;;;;;4994639;28;20479;-81
2021/11/08 13:57:41;;;;;;;0.30;0.30;;;9.30;99.90;;;;;;4994319;28;20495;-81
2021/11/08 14:00:13;;;;;;;0.47;0.47;;;9.30;99.90;;;;;;4994076;28;20433;-81
2021/11/08 14:02:41;;;;;;;0.30;0.27;;;9.20;99.90;;;;;;4994050;28;20896;-81
2021/11/08 14:05:10;;;;;;;1.07;0.30;;;9.10;99.90;;;;;;4994015;28;20916;-81
2021/11/08 14:07:36;;;;;;;1.00;1.00;;;9.10;99.90;;;;;;4994653;28;20782;-82
2021/11/08 14:10:06;;;;;;;0.40;0.40;;;9.10;99.90;;;;;;4994674;28;20449;-81
2021/11/08 14:12:33;;;;;;;0.30;0.20;;;9.20;99.90;;;;;;4993990;28;20488;-82
2021/11/08 14:15:01;;;;;;;0.50;0.30;;;9.20;99.90;;;;;;4993896;28;20440;-81
2021/11/08 14:17:31;;;;;;;0.33;0.33;;;9.20;99.90;;;;;;4993985;28;20984;-81
2021/11/08 14:20:01;;;;;;;0.30;0.30;;;9.10;99.90;;;;;;4994074;28;20444;-80
2021/11/08 14:22:31;;;;;;;0.40;0.30;;;8.90;99.90;;;;;;4993949;28;21019;-81
2021/11/08 14:25:00;;;;;;;0.30;0.20;;;8.80;99.90;;;;;;4994469;28;20790;-81